Time;durP1;ratioP1;P1;durP2;ratioP2;P2;SDS_P1;SDS_P2;PMS_P1;PMS_P2;Temp;Humidity;BMP_temperature;BMP_pressure;BME280_temperature;BME280_humidity;BME280_pressure;Samples;Min_cycle;Max_cycle;Signal;HPM_P1;HPM_P2
2022/08/22 00:00:24;;;;;;;8.25;2.00;;;;;;;;;;5012430;28;20574;-66
2022/08/22 00:03:00;;;;;;;8.48;2.22;;;;;;;;;;5011890;28;20169;-66
2022/08/22 00:05:46;;;;;;;8.95;2.20;;;;;;;;;;5027914;28;20227;-66
2022/08/22 00:08:20;;;;;;;9.50;2.30;;;;;;;;;;5012902;28;20212;-66
2022/08/22 00:10:51;;;;;;;11.55;2.63;;;;;;;;;;5018852;28;20605;-66
2022/08/22 00:13:19;;;;;;;9.52;2.15;;;;;;;;;;5009848;28;20180;-67
2022/08/22 00:15:48;;;;;;;11.63;2.95;;;;;;;;;;5011893;28;20180;-66
2022/08/22 00:18:16;;;;;;;8.88;2.40;;;;;;;;;;5022364;28;20263;-66
2022/08/22 00:20:42;;;;;;;9.48;2.42;;;;;;;;;;5014853;28;20203;-66
2022/08/22 00:23:10;;;;;;;7.07;2.25;;;;;;;;;;5017970;28;20195;-66
2022/08/22 00:25:54;;;;;;;12.38;2.95;;;;;;;;;;5017012;28;20184;-67
2022/08/22 00:28:19;;;;;;;11.20;2.28;;;;;;;;;;5011153;28;20217;-66
2022/08/22 00:31:01;;;;;;;9.63;2.33;;;;;;;;;;5006898;28;20657;-67
2022/08/22 00:33:35;;;;;;;6.32;2.10;;;;;;;;;;5023943;28;20186;-67
2022/08/22 00:36:02;;;;;;;9.30;2.75;;;;;;;;;;5016048;28;20722;-67
2022/08/22 00:38:33;;;;;;;8.88;2.67;;;;;;;;;;5018329;28;20631;-66
2022/08/22 00:41:02;;;;;;;9.65;2.40;;;;;;;;;;5025052;28;20180;-66
2022/08/22 00:43:45;;;;;;;8.13;2.60;;;;;;;;;;5019871;28;20192;-66
2022/08/22 00:46:17;;;;;;;9.02;2.50;;;;;;;;;;5016129;28;20629;-66
2022/08/22 00:48:42;;;;;;;8.57;2.58;;;;;;;;;;5012932;28;20197;-66
2022/08/22 00:51:10;;;;;;;9.10;2.40;;;;;;;;;;5005063;28;20179;-66
2022/08/22 00:53:42;;;;;;;7.78;2.33;;;;;;;;;;5024254;28;20211;-65
2022/08/22 00:56:07;;;;;;;8.23;2.28;;;;;;;;;;5024892;28;20186;-65
2022/08/22 00:58:51;;;;;;;8.60;2.20;;;;;;;;;;5025841;28;20180;-66
2022/08/22 01:01:18;;;;;;;9.23;2.33;;;;;;;;;;5019742;28;20184;-66
2022/08/22 01:03:45;;;;;;;11.60;2.85;;;;;;;;;;5023150;28;20265;-65
2022/08/22 01:06:29;;;;;;;12.30;2.60;;;;;;;;;;5020141;28;20329;-66
2022/08/22 01:09:03;;;;;;;9.95;2.72;;;;;;;;;;5016655;28;20206;-66
2022/08/22 01:11:41;;;;;;;9.75;2.30;;;;;;;;;;5022443;28;20233;-66
2022/08/22 01:14:25;;;;;;;7.80;2.40;;;;;;;;;;5035105;28;20174;-66
2022/08/22 01:16:57;;;;;;;10.20;2.33;;;;;;;;;;5034777;28;20169;-65
2022/08/22 01:19:42;;;;;;;12.43;2.78;;;;;;;;;;5035145;28;20722;-65
2022/08/22 01:22:17;;;;;;;8.07;2.30;;;;;;;;;;5035274;28;20689;-66
2022/08/22 01:25:16;;;;;;;10.95;2.78;;;;;;;;;;5032495;28;20508;-65
2022/08/22 01:27:50;;;;;;;9.95;2.30;;;;;;;;;;5034987;28;20168;-66
2022/08/22 01:30:24;;;;;;;8.60;2.40;;;;;;;;;;5034230;28;20175;-66
2022/08/22 01:32:57;;;;;;;8.27;2.75;;;;;;;;;;5035170;28;20175;-66
2022/08/22 01:35:26;;;;;;;7.45;2.72;;;;;;;;;;5033907;28;20164;-66
2022/08/22 01:37:57;;;;;;;9.30;2.70;;;;;;;;;;5034160;28;20168;-66
2022/08/22 01:40:26;;;;;;;7.15;2.30;;;;;;;;;;5035058;28;20255;-66
2022/08/22 01:43:00;;;;;;;9.68;2.20;;;;;;;;;;5034817;28;20247;-66
2022/08/22 01:45:37;;;;;;;12.18;2.70;;;;;;;;;;5032697;28;20623;-67
2022/08/22 01:48:05;;;;;;;10.32;2.80;;;;;;;;;;5033435;28;20689;-66
2022/08/22 01:50:38;;;;;;;8.90;2.53;;;;;;;;;;5033734;28;20161;-66
2022/08/22 01:53:05;;;;;;;9.35;2.40;;;;;;;;;;5033020;28;20183;-66
2022/08/22 01:55:31;;;;;;;10.32;2.67;;;;;;;;;;5033471;28;20504;-66
2022/08/22 01:57:58;;;;;;;9.82;2.40;;;;;;;;;;5032591;28;20222;-66
2022/08/22 02:00:24;;;;;;;9.45;2.38;;;;;;;;;;5033265;28;20171;-66
2022/08/22 02:02:56;;;;;;;9.60;2.40;;;;;;;;;;5033323;28;20187;-66
2022/08/22 02:05:30;;;;;;;8.10;2.53;;;;;;;;;;5033805;28;20234;-66
2022/08/22 02:08:14;;;;;;;7.32;2.40;;;;;;;;;;5033427;28;20207;-66
2022/08/22 02:10:43;;;;;;;9.65;2.50;;;;;;;;;;5034388;28;20222;-66
2022/08/22 02:13:12;;;;;;;5.88;2.17;;;;;;;;;;5032038;28;20179;-66
2022/08/22 02:15:38;;;;;;;9.35;2.95;;;;;;;;;;5034097;28;20226;-66
2022/08/22 02:18:04;;;;;;;13.00;2.50;;;;;;;;;;5034355;28;20168;-66
2022/08/22 02:20:36;;;;;;;7.72;2.25;;;;;;;;;;5033550;28;20164;-66
2022/08/22 02:23:06;;;;;;;7.65;2.45;;;;;;;;;;5034084;28;20616;-66
2022/08/22 02:25:32;;;;;;;10.65;2.38;;;;;;;;;;5034223;28;20179;-67
2022/08/22 02:28:04;;;;;;;6.88;2.70;;;;;;;;;;5003822;28;20231;-66
2022/08/22 02:30:50;;;;;;;9.20;2.75;;;;;;;;;;5004923;28;20526;-66
2022/08/22 02:33:22;;;;;;;9.45;2.75;;;;;;;;;;5022557;28;20237;-66
2022/08/22 02:35:53;;;;;;;10.80;2.40;;;;;;;;;;5019369;28;20189;-66
2022/08/22 02:38:24;;;;;;;10.45;3.50;;;;;;;;;;5010780;28;20262;-67
2022/08/22 02:41:00;;;;;;;10.48;2.40;;;;;;;;;;5021726;28;20180;-67
2022/08/22 02:43:29;;;;;;;9.48;2.65;;;;;;;;;;5017277;28;20187;-67
2022/08/22 02:46:11;;;;;;;10.07;2.72;;;;;;;;;;5008221;28;20231;-67
2022/08/22 02:48:39;;;;;;;7.85;2.58;;;;;;;;;;4997003;28;20891;-67
2022/08/22 02:51:09;;;;;;;9.43;3.25;;;;;;;;;;5018503;28;20226;-67
2022/08/22 02:53:36;;;;;;;8.73;2.90;;;;;;;;;;5022208;28;20171;-67
2022/08/22 02:56:05;;;;;;;8.80;2.42;;;;;;;;;;5022516;28;20187;-67
2022/08/22 02:58:37;;;;;;;12.63;2.75;;;;;;;;;;5022220;28;20178;-67
2022/08/22 03:01:03;;;;;;;7.68;2.78;;;;;;;;;;5018032;28;20259;-67
2022/08/22 03:03:30;;;;;;;8.68;2.60;;;;;;;;;;5004217;28;20263;-67
2022/08/22 03:06:00;;;;;;;11.05;3.15;;;;;;;;;;5018375;28;20298;-67
2022/08/22 03:08:27;;;;;;;10.68;2.80;;;;;;;;;;5010919;28;20262;-67
2022/08/22 03:11:03;;;;;;;9.48;2.63;;;;;;;;;;5014910;28;20203;-67
2022/08/22 03:13:35;;;;;;;10.02;2.78;;;;;;;;;;5014729;28;20586;-66
2022/08/22 03:16:17;;;;;;;6.85;2.63;;;;;;;;;;5020537;28;20270;-66
2022/08/22 03:18:47;;;;;;;12.82;3.25;;;;;;;;;;5021873;28;20293;-66
2022/08/22 03:21:29;;;;;;;8.73;2.38;;;;;;;;;;5021927;28;20238;-66
2022/08/22 03:23:59;;;;;;;11.63;3.03;;;;;;;;;;5017762;28;20262;-66
2022/08/22 03:26:27;;;;;;;10.18;3.20;;;;;;;;;;5023042;28;20512;-66
2022/08/22 03:28:55;;;;;;;10.93;2.67;;;;;;;;;;5017341;28;20211;-67
2022/08/22 03:31:21;;;;;;;10.30;2.75;;;;;;;;;;5013768;28;20219;-67
2022/08/22 03:34:07;;;;;;;10.52;3.17;;;;;;;;;;5014094;28;20172;-67
2022/08/22 03:36:33;;;;;;;9.00;2.75;;;;;;;;;;5001365;28;20181;-67
2022/08/22 03:39:01;;;;;;;10.85;3.20;;;;;;;;;;5004468;28;20180;-66
2022/08/22 03:41:48;;;;;;;13.13;3.55;;;;;;;;;;5013953;28;20176;-66
2022/08/22 03:44:17;;;;;;;11.98;2.70;;;;;;;;;;5006680;28;20275;-67
2022/08/22 03:46:51;;;;;;;10.82;2.80;;;;;;;;;;5005583;28;20256;-66
2022/08/22 03:49:34;;;;;;;9.75;2.85;;;;;;;;;;5024609;28;20217;-66
2022/08/22 03:52:08;;;;;;;10.43;2.97;;;;;;;;;;5019627;28;20207;-67
2022/08/22 03:54:40;;;;;;;13.20;4.13;;;;;;;;;;5019482;28;20223;-66
2022/08/22 03:57:06;;;;;;;12.65;3.45;;;;;;;;;;5018593;28;20519;-66
2022/08/22 03:59:42;;;;;;;9.00;3.28;;;;;;;;;;5024337;28;20176;-66
2022/08/22 04:02:08;;;;;;;12.43;3.33;;;;;;;;;;5022218;28;20207;-66
2022/08/22 04:04:34;;;;;;;13.05;3.30;;;;;;;;;;5025840;28;20178;-66
2022/08/22 04:07:14;;;;;;;16.17;4.00;;;;;;;;;;5041552;28;20184;-66
2022/08/22 04:09:52;;;;;;;11.68;3.10;;;;;;;;;;5025268;28;20743;-67
2022/08/22 04:12:24;;;;;;;10.30;4.35;;;;;;;;;;5024470;28;20529;-67
2022/08/22 04:14:58;;;;;;;11.82;3.90;;;;;;;;;;5020583;28;20183;-66
2022/08/22 04:17:30;;;;;;;12.10;3.72;;;;;;;;;;5017552;28;20187;-67
2022/08/22 04:19:55;;;;;;;13.55;3.60;;;;;;;;;;5008572;28;20192;-66
2022/08/22 04:22:38;;;;;;;8.68;3.17;;;;;;;;;;5005779;28;20184;-67
2022/08/22 04:25:10;;;;;;;11.18;3.28;;;;;;;;;;5024885;28;20229;-66
2022/08/22 04:27:46;;;;;;;10.88;4.00;;;;;;;;;;5024835;28;20560;-67
2022/08/22 04:30:21;;;;;;;11.73;3.40;;;;;;;;;;5025152;28;20190;-66
2022/08/22 04:32:49;;;;;;;10.43;3.70;;;;;;;;;;5024247;28;20184;-67
2022/08/22 04:35:16;;;;;;;11.65;3.38;;;;;;;;;;5018917;28;20185;-66
2022/08/22 04:37:42;;;;;;;11.35;3.38;;;;;;;;;;5010818;28;20180;-66
2022/08/22 04:40:10;;;;;;;9.88;3.20;;;;;;;;;;4997517;28;20182;-66
2022/08/22 04:42:39;;;;;;;10.75;3.20;;;;;;;;;;5016177;28;20184;-66
2022/08/22 04:45:14;;;;;;;9.10;2.97;;;;;;;;;;5023599;28;20171;-66
2022/08/22 04:47:41;;;;;;;10.68;3.42;;;;;;;;;;5015370;28;20634;-66
2022/08/22 04:50:28;;;;;;;13.88;3.47;;;;;;;;;;5025376;28;20291;-65
2022/08/22 04:52:58;;;;;;;13.18;3.28;;;;;;;;;;5024601;28;20879;-65
2022/08/22 04:55:24;;;;;;;11.52;3.15;;;;;;;;;;5024035;28;20179;-62
2022/08/22 04:57:54;;;;;;;10.93;3.30;;;;;;;;;;5023867;28;20425;-65
2022/08/22 05:00:20;;;;;;;16.10;3.70;;;;;;;;;;4997982;28;20433;-65
2022/08/22 05:02:47;;;;;;;13.63;3.00;;;;;;;;;;4997448;28;20692;-66
2022/08/22 05:05:13;;;;;;;9.68;3.47;;;;;;;;;;5000265;28;20168;-66
2022/08/22 05:07:40;;;;;;;14.35;3.50;;;;;;;;;;5003798;28;20444;-67
2022/08/22 05:10:08;;;;;;;9.40;2.95;;;;;;;;;;5005950;28;20189;-67
2022/08/22 05:12:36;;;;;;;8.48;3.10;;;;;;;;;;5007722;28;20208;-68
2022/08/22 05:15:05;;;;;;;9.25;3.08;;;;;;;;;;5004812;28;20609;-67
2022/08/22 05:17:30;;;;;;;10.35;3.40;;;;;;;;;;5005825;28;20704;-65
2022/08/22 05:19:56;;;;;;;12.05;3.38;;;;;;;;;;5003912;28;20188;-65
2022/08/22 05:22:23;;;;;;;12.10;3.72;;;;;;;;;;5000575;28;20169;-62
2022/08/22 05:24:50;;;;;;;13.77;3.40;;;;;;;;;;5016943;28;20187;-62
2022/08/22 05:27:19;;;;;;;9.60;3.47;;;;;;;;;;5017304;28;20583;-63
2022/08/22 05:29:45;;;;;;;11.23;3.03;;;;;;;;;;5021339;28;20204;-63
2022/08/22 05:32:11;;;;;;;12.38;3.60;;;;;;;;;;5023644;28;20237;-64
2022/08/22 05:34:38;;;;;;;8.52;3.47;;;;;;;;;;5022635;28;20183;-63
2022/08/22 05:37:03;;;;;;;9.02;2.80;;;;;;;;;;5004821;28;20172;-63
2022/08/22 05:39:28;;;;;;;11.52;3.35;;;;;;;;;;5005439;28;20180;-64
2022/08/22 05:41:54;;;;;;;9.32;3.15;;;;;;;;;;5005781;28;20176;-65
2022/08/22 05:44:22;;;;;;;10.35;3.25;;;;;;;;;;5019310;28;20740;-64
2022/08/22 05:46:50;;;;;;;9.63;3.28;;;;;;;;;;5013703;28;20845;-64
2022/08/22 05:49:21;;;;;;;10.43;3.45;;;;;;;;;;5015379;28;20397;-64
2022/08/22 05:51:53;;;;;;;12.07;3.83;;;;;;;;;;5017903;28;20191;-64
2022/08/22 05:54:20;;;;;;;12.73;3.55;;;;;;;;;;5024500;28;20245;-65
2022/08/22 05:56:46;;;;;;;9.45;3.63;;;;;;;;;;5019007;28;20176;-64
2022/08/22 05:59:12;;;;;;;13.52;4.43;;;;;;;;;;5004968;28;20181;-65
2022/08/22 06:01:40;;;;;;;14.55;4.57;;;;;;;;;;5005244;28;20547;-65
2022/08/22 06:04:10;;;;;;;14.30;4.13;;;;;;;;;;5017944;28;20187;-65
2022/08/22 06:06:37;;;;;;;13.48;4.35;;;;;;;;;;5017660;28;20320;-64
2022/08/22 06:09:06;;;;;;;11.63;3.92;;;;;;;;;;5010649;28;20227;-66
2022/08/22 06:11:34;;;;;;;9.88;3.95;;;;;;;;;;5013479;28;20211;-67
2022/08/22 06:14:06;;;;;;;9.35;3.50;;;;;;;;;;5016603;28;20203;-66
2022/08/22 06:16:38;;;;;;;14.38;4.00;;;;;;;;;;5023157;28;20648;-65
2022/08/22 06:19:03;;;;;;;12.45;3.92;;;;;;;;;;5022403;28;20242;-68
2022/08/22 06:21:30;;;;;;;10.70;3.70;;;;;;;;;;5023712;28;20632;-66
2022/08/22 06:23:56;;;;;;;13.00;4.28;;;;;;;;;;5019249;28;20181;-64
2022/08/22 06:26:23;;;;;;;11.10;3.83;;;;;;;;;;5004072;28;20532;-68
2022/08/22 06:28:50;;;;;;;12.63;4.18;;;;;;;;;;5022004;28;20214;-67
2022/08/22 06:31:20;;;;;;;10.80;4.25;;;;;;;;;;5014983;28;20180;-67
2022/08/22 06:33:50;;;;;;;11.18;4.70;;;;;;;;;;5014128;28;20299;-68
2022/08/22 06:36:31;;;;;;;12.10;4.68;;;;;;;;;;5011641;28;20176;-68
2022/08/22 06:38:59;;;;;;;9.77;5.25;;;;;;;;;;5005207;28;20188;-67
2022/08/22 06:41:25;;;;;;;13.15;5.32;;;;;;;;;;5023194;28;21188;-68
2022/08/22 06:43:51;;;;;;;14.85;5.93;;;;;;;;;;5023610;28;20258;-65
2022/08/22 06:46:17;;;;;;;11.57;5.93;;;;;;;;;;5021337;28;20369;-66
2022/08/22 06:48:43;;;;;;;12.38;5.30;;;;;;;;;;5006108;28;20319;-67
2022/08/22 06:51:09;;;;;;;13.30;5.15;;;;;;;;;;5021471;28;20714;-66
2022/08/22 06:53:37;;;;;;;13.85;5.40;;;;;;;;;;5015143;28;20176;-66
2022/08/22 06:56:04;;;;;;;13.43;5.85;;;;;;;;;;5014213;28;20859;-71
2022/08/22 06:58:32;;;;;;;11.52;5.47;;;;;;;;;;5015850;28;20175;-67
2022/08/22 07:00:59;;;;;;;14.77;5.97;;;;;;;;;;5018566;28;20177;-74
2022/08/22 07:03:26;;;;;;;12.30;5.38;;;;;;;;;;5021904;28;20179;-74
2022/08/22 07:05:52;;;;;;;12.75;5.30;;;;;;;;;;5023436;28;20662;-76
2022/08/22 07:08:18;;;;;;;13.65;6.00;;;;;;;;;;5022463;28;20253;-75
2022/08/22 07:10:44;;;;;;;15.88;5.63;;;;;;;;;;5018697;28;20216;-72
2022/08/22 07:13:15;;;;;;;15.35;5.97;;;;;;;;;;5023291;28;20171;-75
2022/08/22 07:15:41;;;;;;;12.45;5.82;;;;;;;;;;5017548;28;20684;-73
2022/08/22 07:18:07;;;;;;;14.23;5.80;;;;;;;;;;4995550;28;20169;-75
2022/08/22 07:20:34;;;;;;;15.32;5.60;;;;;;;;;;4996111;28;20267;-75
2022/08/22 07:23:01;;;;;;;14.13;5.40;;;;;;;;;;4999482;28;20204;-75
2022/08/22 07:25:27;;;;;;;12.32;4.68;;;;;;;;;;5021494;28;20182;-75
2022/08/22 07:27:52;;;;;;;15.20;5.28;;;;;;;;;;5022065;28;20176;-75
2022/08/22 07:30:18;;;;;;;11.93;5.00;;;;;;;;;;5022131;28;20183;-75
2022/08/22 07:32:44;;;;;;;13.05;4.68;;;;;;;;;;5003751;28;20259;-75
2022/08/22 07:35:19;;;;;;;12.02;5.00;;;;;;;;;;5015936;28;20588;-75
2022/08/22 07:37:45;;;;;;;11.20;5.47;;;;;;;;;;5011875;28;20267;-75
2022/08/22 07:40:22;;;;;;;12.50;4.70;;;;;;;;;;5015013;28;20627;-75
2022/08/22 07:42:52;;;;;;;14.55;5.00;;;;;;;;;;5014058;28;20183;-75
2022/08/22 07:45:23;;;;;;;12.82;5.07;;;;;;;;;;5018727;28;20241;-75
2022/08/22 07:48:11;;;;;;;10.73;4.88;;;;;;;;;;5012289;28;20667;-75
2022/08/22 07:50:39;;;;;;;11.18;4.30;;;;;;;;;;5020417;28;20271;-76
2022/08/22 07:53:08;;;;;;;11.50;4.90;;;;;;;;;;5021868;28;20184;-74
2022/08/22 07:55:34;;;;;;;16.67;4.82;;;;;;;;;;5021526;28;20234;-75
2022/08/22 07:58:00;;;;;;;12.52;4.55;;;;;;;;;;5020421;28;20192;-75
2022/08/22 08:00:28;;;;;;;14.75;4.90;;;;;;;;;;5018012;28;20496;-76
2022/08/22 08:02:55;;;;;;;11.90;3.97;;;;;;;;;;4995958;28;20259;-76
2022/08/22 08:05:21;;;;;;;10.65;4.13;;;;;;;;;;5013749;28;20679;-75
2022/08/22 08:07:46;;;;;;;12.75;4.47;;;;;;;;;;5016279;28;20190;-75
2022/08/22 08:10:15;;;;;;;13.32;4.10;;;;;;;;;;5022520;28;20208;-71
2022/08/22 08:12:43;;;;;;;10.00;4.05;;;;;;;;;;5021763;28;20168;-74
2022/08/22 08:15:10;;;;;;;16.38;4.60;;;;;;;;;;5022873;28;20175;-74
2022/08/22 08:17:35;;;;;;;16.70;5.43;;;;;;;;;;5020741;28;20176;-76
2022/08/22 08:20:02;;;;;;;10.48;4.40;;;;;;;;;;5022655;28;20186;-75
2022/08/22 08:22:27;;;;;;;11.02;4.20;;;;;;;;;;5015600;28;20219;-76
2022/08/22 08:24:55;;;;;;;10.50;4.20;;;;;;;;;;5012744;28;20630;-75
2022/08/22 08:30:08;;;;;;;16.55;5.38;;;;;;;;;;5015744;28;20218;-75
2022/08/22 08:32:34;;;;;;;13.70;5.20;;;;;;;;;;5021500;28;20172;-75
2022/08/22 08:35:04;;;;;;;11.07;3.90;;;;;;;;;;5019510;28;20516;-75
2022/08/22 08:37:34;;;;;;;10.02;3.95;;;;;;;;;;5018717;28;20172;-74
2022/08/22 08:40:00;;;;;;;12.48;4.47;;;;;;;;;;5023046;28;20535;-76
2022/08/22 08:42:32;;;;;;;8.88;4.32;;;;;;;;;;5024746;28;20662;-75
2022/08/22 08:45:01;;;;;;;10.90;3.97;;;;;;;;;;5023363;28;20175;-75
2022/08/22 08:47:30;;;;;;;10.70;4.13;;;;;;;;;;5012505;28;20310;-73
2022/08/22 08:50:04;;;;;;;12.15;4.82;;;;;;;;;;5015606;28;20321;-70
2022/08/22 08:52:33;;;;;;;8.98;3.63;;;;;;;;;;5017446;28;20163;-71
2022/08/22 08:55:10;;;;;;;12.25;4.05;;;;;;;;;;5005748;28;20188;-77
2022/08/22 08:57:39;;;;;;;11.38;4.07;;;;;;;;;;5014686;28;20187;-78
2022/08/22 09:00:10;;;;;;;13.60;4.57;;;;;;;;;;5024692;28;20183;-79
2022/08/22 09:02:37;;;;;;;10.15;4.47;;;;;;;;;;5009386;28;20211;-78
2022/08/22 09:05:02;;;;;;;9.98;3.63;;;;;;;;;;5006215;28;20208;-78
2022/08/22 09:07:44;;;;;;;12.45;4.28;;;;;;;;;;5003873;28;20520;-78
2022/08/22 09:10:18;;;;;;;9.55;3.80;;;;;;;;;;5017159;28;20633;-78
2022/08/22 09:12:48;;;;;;;11.27;3.70;;;;;;;;;;5017172;28;20175;-78
2022/08/22 09:15:22;;;;;;;12.77;3.63;;;;;;;;;;5018667;28;20309;-80
2022/08/22 09:17:59;;;;;;;7.95;3.25;;;;;;;;;;5023813;28;20172;-79
2022/08/22 09:20:25;;;;;;;11.00;3.33;;;;;;;;;;5024056;28;20218;-78
2022/08/22 09:22:51;;;;;;;10.50;3.40;;;;;;;;;;5020097;28;20183;-77
2022/08/22 09:25:25;;;;;;;11.43;3.40;;;;;;;;;;5024746;28;20191;-79
2022/08/22 09:27:58;;;;;;;10.80;3.50;;;;;;;;;;5024539;28;20251;-78
2022/08/22 09:30:25;;;;;;;9.90;4.07;;;;;;;;;;5021972;28;20184;-79
2022/08/22 09:32:51;;;;;;;9.35;3.63;;;;;;;;;;5014470;28;20225;-75
2022/08/22 09:35:16;;;;;;;11.55;3.97;;;;;;;;;;4993146;28;20212;-72
2022/08/22 09:38:03;;;;;;;15.27;5.03;;;;;;;;;;4997825;28;20856;-68
2022/08/22 09:40:29;;;;;;;12.38;3.92;;;;;;;;;;5024074;28;20697;-67
2022/08/22 09:43:03;;;;;;;8.15;3.22;;;;;;;;;;5022548;28;20180;-66
2022/08/22 09:45:33;;;;;;;10.13;3.80;;;;;;;;;;5022704;28;20184;-66
2022/08/22 09:47:59;;;;;;;11.38;3.85;;;;;;;;;;5012372;28;20236;-66
2022/08/22 09:50:41;;;;;;;10.90;3.55;;;;;;;;;;5021732;28;20199;-66
2022/08/22 09:53:11;;;;;;;9.98;3.88;;;;;;;;;;5020498;28;20168;-66
2022/08/22 09:55:39;;;;;;;11.20;3.88;;;;;;;;;;5011356;28;20223;-66
2022/08/22 09:58:06;;;;;;;9.88;3.92;;;;;;;;;;4997271;28;20177;-65
2022/08/22 10:00:34;;;;;;;10.25;3.75;;;;;;;;;;5017140;28;20187;-64
2022/08/22 10:03:03;;;;;;;12.20;4.45;;;;;;;;;;5017242;28;20180;-65
2022/08/22 10:05:29;;;;;;;11.27;4.53;;;;;;;;;;5011364;28;20267;-65
2022/08/22 10:07:56;;;;;;;9.82;3.42;;;;;;;;;;5021990;28;20172;-65
2022/08/22 10:10:24;;;;;;;10.35;3.58;;;;;;;;;;5023267;28;20187;-65
2022/08/22 10:12:53;;;;;;;8.27;3.00;;;;;;;;;;5022911;28;20180;-65
2022/08/22 10:15:22;;;;;;;9.18;3.75;;;;;;;;;;5023181;28;20533;-65
2022/08/22 10:17:54;;;;;;;8.98;4.60;;;;;;;;;;5016049;28;20279;-65
2022/08/22 10:20:23;;;;;;;10.60;4.35;;;;;;;;;;5014849;28;20735;-65
2022/08/22 10:22:57;;;;;;;9.57;3.53;;;;;;;;;;5011755;28;20631;-65
2022/08/22 10:25:26;;;;;;;9.32;3.08;;;;;;;;;;5022190;28;20211;-65
2022/08/22 10:27:53;;;;;;;10.95;3.58;;;;;;;;;;5022867;28;20179;-65
2022/08/22 10:30:24;;;;;;;10.27;3.30;;;;;;;;;;5023691;28;20207;-65
2022/08/22 10:32:50;;;;;;;10.43;3.30;;;;;;;;;;5023206;28;20171;-65
2022/08/22 10:35:25;;;;;;;9.02;3.60;;;;;;;;;;5016630;28;20515;-65
2022/08/22 10:37:53;;;;;;;10.88;3.95;;;;;;;;;;5013323;28;20176;-65
2022/08/22 10:40:31;;;;;;;9.48;3.35;;;;;;;;;;5015133;28;20180;-65
2022/08/22 10:42:56;;;;;;;9.02;3.55;;;;;;;;;;5014442;28;20666;-65
2022/08/22 10:45:27;;;;;;;9.57;3.25;;;;;;;;;;5015683;28;20246;-65
2022/08/22 10:47:53;;;;;;;10.25;3.10;;;;;;;;;;5013119;28;20184;-65
2022/08/22 10:50:23;;;;;;;9.63;2.85;;;;;;;;;;5003829;28;20216;-65
2022/08/22 10:52:50;;;;;;;10.05;2.78;;;;;;;;;;5020757;28;20168;-66
2022/08/22 10:55:20;;;;;;;9.48;3.22;;;;;;;;;;5022095;28;20247;-65
2022/08/22 10:57:49;;;;;;;10.75;3.00;;;;;;;;;;5022063;28;20176;-66
2022/08/22 11:00:17;;;;;;;11.98;2.70;;;;;;;;;;5022739;28;20247;-69
2022/08/22 11:02:43;;;;;;;11.52;3.83;;;;;;;;;;5012123;28;20195;-69
2022/08/22 11:05:10;;;;;;;15.90;4.05;;;;;;;;;;5014840;28;20549;-74
2022/08/22 11:07:42;;;;;;;15.40;3.72;;;;;;;;;;5014663;28;20187;-69
2022/08/22 11:10:08;;;;;;;10.50;3.00;;;;;;;;;;5021176;28;20250;-68
2022/08/22 11:12:36;;;;;;;8.52;2.78;;;;;;;;;;5023382;28;20505;-68
2022/08/22 11:15:04;;;;;;;8.38;2.90;;;;;;;;;;5022755;28;20717;-68
2022/08/22 11:17:30;;;;;;;10.77;2.88;;;;;;;;;;5013765;28;20184;-68
2022/08/22 11:20:04;;;;;;;9.43;3.10;;;;;;;;;;5003681;28;20177;-68
2022/08/22 11:22:32;;;;;;;10.02;2.60;;;;;;;;;;5017238;28;20188;-68
2022/08/22 11:24:59;;;;;;;11.23;3.00;;;;;;;;;;5016930;28;20176;-68
2022/08/22 11:27:30;;;;;;;8.77;2.42;;;;;;;;;;5014375;28;20203;-68
2022/08/22 11:30:08;;;;;;;10.30;2.90;;;;;;;;;;5014562;28;20298;-68
2022/08/22 11:32:35;;;;;;;7.68;2.40;;;;;;;;;;5020526;28;20186;-68
2022/08/22 11:35:04;;;;;;;11.80;2.80;;;;;;;;;;5018091;28;20291;-69
2022/08/22 11:37:41;;;;;;;6.30;2.40;;;;;;;;;;5015683;28;20181;-67
2022/08/22 11:40:18;;;;;;;11.57;2.65;;;;;;;;;;5022336;28;20677;-68
2022/08/22 11:42:46;;;;;;;9.27;2.83;;;;;;;;;;5021323;28;20180;-68
2022/08/22 11:45:15;;;;;;;12.60;2.70;;;;;;;;;;5022128;28;20579;-67
2022/08/22 11:47:44;;;;;;;7.85;2.22;;;;;;;;;;5008291;28;20228;-68
2022/08/22 11:50:13;;;;;;;8.48;2.10;;;;;;;;;;5012562;28;20330;-69
2022/08/22 11:52:40;;;;;;;10.10;2.20;;;;;;;;;;5013410;28;20326;-68
2022/08/22 11:55:15;;;;;;;9.60;2.30;;;;;;;;;;5020633;28;20319;-68
2022/08/22 11:57:42;;;;;;;8.55;2.13;;;;;;;;;;5021005;28;20635;-68
2022/08/22 12:00:14;;;;;;;19.38;2.60;;;;;;;;;;5021410;28;20191;-68
2022/08/22 12:02:51;;;;;;;8.57;2.08;;;;;;;;;;5005031;28;20639;-68
2022/08/22 12:05:18;;;;;;;8.60;2.33;;;;;;;;;;5022101;28;20172;-68
2022/08/22 12:07:46;;;;;;;6.10;1.77;;;;;;;;;;5022427;28;20176;-69
2022/08/22 12:10:16;;;;;;;9.35;2.55;;;;;;;;;;5017973;28;20671;-67
2022/08/22 12:12:48;;;;;;;9.68;2.55;;;;;;;;;;5018751;28;20192;-69
2022/08/22 12:15:22;;;;;;;9.20;2.30;;;;;;;;;;5018526;28;20180;-69
2022/08/22 12:17:52;;;;;;;9.30;2.17;;;;;;;;;;5022768;28;20254;-68
2022/08/22 12:20:36;;;;;;;7.45;1.90;;;;;;;;;;5025825;28;20176;-67
2022/08/22 12:23:20;;;;;;;7.78;2.05;;;;;;;;;;5017310;28;20168;-67
2022/08/22 12:25:53;;;;;;;7.03;1.80;;;;;;;;;;5025071;28;20258;-69
2022/08/22 12:28:26;;;;;;;8.27;2.03;;;;;;;;;;5022167;28;20200;-67
2022/08/22 12:31:02;;;;;;;7.03;2.10;;;;;;;;;;5025679;28;20180;-67
2022/08/22 12:33:36;;;;;;;7.82;1.77;;;;;;;;;;5018066;28;21068;-68
2022/08/22 12:36:16;;;;;;;6.03;1.98;;;;;;;;;;5013434;28;20173;-68
2022/08/22 12:38:48;;;;;;;6.38;1.90;;;;;;;;;;5002979;28;20199;-67
2022/08/22 12:41:20;;;;;;;6.03;2.05;;;;;;;;;;5024302;28;20187;-68
2022/08/22 12:43:50;;;;;;;9.70;2.22;;;;;;;;;;5024704;28;20183;-67
2022/08/22 12:46:16;;;;;;;9.88;1.85;;;;;;;;;;5025211;28;20228;-68
2022/08/22 12:48:50;;;;;;;12.57;2.85;;;;;;;;;;5021361;28;20238;-67
2022/08/22 12:51:23;;;;;;;9.32;2.33;;;;;;;;;;5024563;28;20175;-67
2022/08/22 12:53:57;;;;;;;10.27;2.33;;;;;;;;;;5023085;28;20172;-67
2022/08/22 12:56:30;;;;;;;11.70;2.40;;;;;;;;;;5016837;28;20172;-67
2022/08/22 12:59:02;;;;;;;6.47;1.75;;;;;;;;;;5017173;28;20242;-68
2022/08/22 13:01:32;;;;;;;6.05;2.17;;;;;;;;;;5014028;28;20196;-67
2022/08/22 13:04:00;;;;;;;8.02;1.80;;;;;;;;;;5023355;28;20176;-68
2022/08/22 13:06:32;;;;;;;7.65;1.98;;;;;;;;;;5024701;28;20670;-68
2022/08/22 13:08:57;;;;;;;7.72;1.88;;;;;;;;;;5025149;28;20643;-68
2022/08/22 13:11:23;;;;;;;6.15;1.95;;;;;;;;;;5025597;28;20187;-66
2022/08/22 13:13:50;;;;;;;7.15;1.88;;;;;;;;;;5023479;28;21179;-67
2022/08/22 13:16:16;;;;;;;6.90;1.60;;;;;;;;;;5024083;28;20602;-67
2022/08/22 13:18:45;;;;;;;8.65;1.90;;;;;;;;;;5016410;28;20179;-66
2022/08/22 13:21:11;;;;;;;7.63;1.90;;;;;;;;;;5013436;28;20535;-66
2022/08/22 13:23:40;;;;;;;9.88;2.33;;;;;;;;;;5012558;28;20177;-66
2022/08/22 13:26:09;;;;;;;7.28;1.70;;;;;;;;;;5023948;28;20230;-67
2022/08/22 13:28:39;;;;;;;7.60;2.00;;;;;;;;;;5024720;28;20203;-67
2022/08/22 13:31:05;;;;;;;6.72;2.05;;;;;;;;;;5025020;28;21003;-66
2022/08/22 13:33:31;;;;;;;7.93;2.00;;;;;;;;;;5023928;28;20176;-67
2022/08/22 13:35:59;;;;;;;7.60;2.10;;;;;;;;;;5011265;28;20200;-67
2022/08/22 13:38:26;;;;;;;9.07;1.98;;;;;;;;;;5011855;28;20176;-67
2022/08/22 13:40:51;;;;;;;6.90;1.88;;;;;;;;;;5017723;28;20214;-67
2022/08/22 13:43:18;;;;;;;7.22;1.90;;;;;;;;;;5014412;28;20180;-67
2022/08/22 13:45:48;;;;;;;6.43;1.98;;;;;;;;;;5015711;28;20851;-67
2022/08/22 13:48:13;;;;;;;9.57;2.38;;;;;;;;;;5017680;28;20176;-68
2022/08/22 13:50:51;;;;;;;6.75;2.03;;;;;;;;;;5023881;28;20230;-67
2022/08/22 13:53:25;;;;;;;10.18;2.10;;;;;;;;;;5023170;28;20647;-67
2022/08/22 13:55:53;;;;;;;10.45;2.15;;;;;;;;;;5022810;28;20536;-65
2022/08/22 13:58:20;;;;;;;7.55;1.83;;;;;;;;;;5021932;28;20638;-66
2022/08/22 14:00:59;;;;;;;7.82;2.03;;;;;;;;;;5007151;28;20180;-66
2022/08/22 14:03:27;;;;;;;7.65;2.00;;;;;;;;;;5017411;28;20202;-66
2022/08/22 14:05:54;;;;;;;5.78;1.80;;;;;;;;;;5015343;28;20259;-66
2022/08/22 14:08:22;;;;;;;7.13;1.70;;;;;;;;;;5015031;28;20326;-65
2022/08/22 14:10:52;;;;;;;9.10;2.10;;;;;;;;;;5021728;28;20179;-66
2022/08/22 14:13:28;;;;;;;6.15;1.92;;;;;;;;;;5024034;28;20180;-66
2022/08/22 14:15:57;;;;;;;5.18;1.70;;;;;;;;;;5024549;28;20171;-65
2022/08/22 14:18:24;;;;;;;5.70;1.90;;;;;;;;;;5022250;28;20246;-66
2022/08/22 14:20:50;;;;;;;6.10;2.10;;;;;;;;;;5022632;28;20238;-67
2022/08/22 14:23:21;;;;;;;8.00;2.35;;;;;;;;;;5012232;28;20177;-67
2022/08/22 14:25:47;;;;;;;8.57;2.05;;;;;;;;;;5019446;28;20622;-67
2022/08/22 14:28:20;;;;;;;7.40;2.00;;;;;;;;;;5015254;28;20581;-67
2022/08/22 14:31:01;;;;;;;5.00;1.77;;;;;;;;;;5015176;28;20255;-66
2022/08/22 14:33:30;;;;;;;7.35;2.15;;;;;;;;;;5019949;28;20207;-66
2022/08/22 14:35:58;;;;;;;9.00;2.20;;;;;;;;;;5018314;28;20485;-70
2022/08/22 14:38:30;;;;;;;6.55;2.00;;;;;;;;;;5010434;28;20188;-63
2022/08/22 14:40:59;;;;;;;5.53;1.90;;;;;;;;;;5023412;28;20648;-64
2022/08/22 14:43:27;;;;;;;7.45;1.90;;;;;;;;;;5022453;28;20176;-65
2022/08/22 14:45:54;;;;;;;5.32;2.17;;;;;;;;;;5022974;28;20223;-65
2022/08/22 14:48:22;;;;;;;4.95;1.88;;;;;;;;;;5002311;28;20636;-64
2022/08/22 14:50:50;;;;;;;7.50;2.00;;;;;;;;;;5015549;28;20180;-64
2022/08/22 14:53:18;;;;;;;8.23;2.15;;;;;;;;;;5015184;28;20854;-65
2022/08/22 14:55:52;;;;;;;8.93;2.13;;;;;;;;;;5020350;28;20254;-65